Alvada, Ohio
Current Conditions -  °F | °C
As of 9:31 AM on Sunday 25 Jan 2015 (Local Time) from KFDY Reporting Station
Haze Haze  
Wind Chill: 21°   Ceiling: 600
Heat Index: 33°   Visibility: 5mi
Dew Point: 30°   Wind: 21mph
Humidity: 89%   Direction: 50°NE
Pressure: 29.78"   Gusts: 28mph
Location:  41.05°N, 83.4°W
Report Text: KFDY 251431Z AUTO 05018G24KT 5SM BR BKN006 OVC013 01/M01 A2978 RMK AO2 T00061011
Loading
Personal Weather Stations






























Interactive Weather Map New forecast layout! Learn more

10-Day Weather Forecast

Advertisements
Track Severe Weather on mobile